createdAt,value
2019-04-20T00:01:57.238Z,8.40
2019-04-20T00:04:31.006Z,9.73
2019-04-20T00:06:59.152Z,8.83
2019-04-20T00:09:31.866Z,6.55
2019-04-20T00:12:08.889Z,7.85
2019-04-20T00:14:34.502Z,8.90
2019-04-20T00:17:03.053Z,8.43
2019-04-20T00:19:38.924Z,8.38
2019-04-20T00:22:24.577Z,6.62
2019-04-20T00:25:00.444Z,10.00
2019-04-20T00:27:42.778Z,12.18
2019-04-20T00:30:22.784Z,5.80
2019-04-20T00:32:41.274Z,8.73
2019-04-20T00:34:58.252Z,7.58
2019-04-20T00:37:27.797Z,7.83
2019-04-20T00:39:57.757Z,9.90
2019-04-20T00:42:33.888Z,8.35
2019-04-20T00:45:05.658Z,7.35
2019-04-20T00:47:37.133Z,8.00
2019-04-20T00:50:22.870Z,7.58
2019-04-20T00:52:47.115Z,8.35
2019-04-20T00:55:02.595Z,6.83
2019-04-20T00:57:41.768Z,7.83
2019-04-20T01:00:24.307Z,8.38
2019-04-20T01:02:45.438Z,8.03
2019-04-20T01:05:39.407Z,7.58
2019-04-20T01:08:12.919Z,8.80
2019-04-20T01:10:49.372Z,7.20
2019-04-20T01:13:19.821Z,9.63
2019-04-20T01:15:51.642Z,6.60
2019-04-20T01:18:17.078Z,8.68
2019-04-20T01:20:47.347Z,7.28
2019-04-20T01:23:20.722Z,9.18
2019-04-20T01:25:55.839Z,8.95
2019-04-20T01:28:37.300Z,9.25
2019-04-20T01:31:06.198Z,8.93
2019-04-20T01:33:31.808Z,9.20
2019-04-20T01:36:09.051Z,9.03
2019-04-20T01:38:41.854Z,11.00
2019-04-20T01:40:55.111Z,10.30
2019-04-20T01:43:24.776Z,8.85
2019-04-20T01:46:01.422Z,9.50
2019-04-20T01:48:28.663Z,8.50
2019-04-20T01:51:06.289Z,6.70
2019-04-20T01:53:44.091Z,12.68
2019-04-20T01:56:17.109Z,9.98
2019-04-20T01:58:53.010Z,11.28
2019-04-20T02:01:28.097Z,9.03
2019-04-20T02:03:58.728Z,9.33
2019-04-20T02:06:30.447Z,10.20
2019-04-20T02:09:06.487Z,10.35
2019-04-20T02:11:38.364Z,9.88
2019-04-20T02:14:07.441Z,9.38
2019-04-20T02:16:40.805Z,10.13
2019-04-20T02:19:25.478Z,8.73
2019-04-20T02:21:55.683Z,10.58
2019-04-20T02:24:11.345Z,7.60
2019-04-20T02:26:41.001Z,9.60
2019-04-20T02:29:37.443Z,9.73
2019-04-20T02:32:17.176Z,9.38
2019-04-20T02:34:59.884Z,11.10
2019-04-20T02:37:49.368Z,15.58
2019-04-20T02:40:09.134Z,9.35
2019-04-20T02:42:44.592Z,11.73
2019-04-20T02:45:18.713Z,9.43
2019-04-20T02:50:15.254Z,9.85
2019-04-20T02:55:14.775Z,8.45
2019-04-20T03:00:12.742Z,10.18
2019-04-20T03:02:31.416Z,8.90
2019-04-20T03:05:00.055Z,11.15
2019-04-20T03:07:31.512Z,9.48
2019-04-20T03:10:11.043Z,10.18
2019-04-20T03:12:43.041Z,9.78
2019-04-20T03:15:13.892Z,10.78
2019-04-20T03:17:51.168Z,13.05
2019-04-20T03:20:21.181Z,12.35
2019-04-20T03:23:20.061Z,12.20
2019-04-20T03:25:43.097Z,13.93
2019-04-20T03:28:14.249Z,13.20
2019-04-20T03:33:31.021Z,10.18
2019-04-20T03:35:58.616Z,11.05
2019-04-20T03:38:19.844Z,12.20
2019-04-20T03:40:46.492Z,18.45
2019-04-20T03:43:03.833Z,12.75
2019-04-20T03:45:42.682Z,16.10
2019-04-20T03:48:16.081Z,15.08
2019-04-20T03:50:56.649Z,14.28
2019-04-20T03:53:27.776Z,17.67
2019-04-20T03:56:11.822Z,15.43
2019-04-20T03:58:45.922Z,17.23
2019-04-20T04:01:55.602Z,18.23
2019-04-20T04:04:10.735Z,13.85
2019-04-20T04:06:32.823Z,15.38
2019-04-20T04:09:02.748Z,17.98
2019-04-20T04:11:38.162Z,16.82
2019-04-20T04:13:52.530Z,18.30
2019-04-20T04:16:23.814Z,18.17
2019-04-20T04:19:01.459Z,19.85
2019-04-20T04:21:41.197Z,18.40
2019-04-20T04:24:11.968Z,23.92
2019-04-20T04:26:38.998Z,18.35
2019-04-20T04:29:21.391Z,17.62
2019-04-20T04:32:00.334Z,19.07
2019-04-20T04:34:20.680Z,17.92
2019-04-20T04:36:56.171Z,19.35
2019-04-20T04:39:26.308Z,19.20
2019-04-20T04:42:04.992Z,18.52
2019-04-20T04:44:19.255Z,20.02
2019-04-20T04:46:44.604Z,20.52
2019-04-20T04:49:17.241Z,19.10
2019-04-20T04:51:46.747Z,19.98
2019-04-20T04:54:16.356Z,19.05
2019-04-20T04:56:40.382Z,21.80
2019-04-20T04:59:10.694Z,22.27
2019-04-20T05:01:40.501Z,20.32
2019-04-20T05:04:32.699Z,20.55
2019-04-20T05:06:59.452Z,20.25
2019-04-20T05:09:15.363Z,21.27
2019-04-20T05:11:44.759Z,20.97
2019-04-20T05:14:21.608Z,20.35
2019-04-20T05:17:04.234Z,20.82
2019-04-20T05:19:36.663Z,23.22
2019-04-20T05:22:11.090Z,23.62
2019-04-20T05:24:48.449Z,20.23
2019-04-20T05:27:37.571Z,19.87
2019-04-20T05:29:44.677Z,20.57
2019-04-20T05:32:18.780Z,22.13
2019-04-20T05:35:12.160Z,21.35
2019-04-20T05:37:51.421Z,20.00
2019-04-20T05:40:10.452Z,20.65
2019-04-20T05:42:42.925Z,21.50
2019-04-20T05:45:11.285Z,21.12
2019-04-20T05:47:43.189Z,22.93
2019-04-20T05:50:09.652Z,18.60
2019-04-20T05:52:56.289Z,22.73
2019-04-20T05:55:20.842Z,19.27
2019-04-20T05:57:50.744Z,23.35
2019-04-20T06:00:19.197Z,20.48
2019-04-20T06:02:52.501Z,21.65
2019-04-20T06:05:22.397Z,26.05
2019-04-20T06:07:54.953Z,19.95
2019-04-20T06:10:32.113Z,22.48
2019-04-20T06:13:00.247Z,24.27
2019-04-20T06:15:38.468Z,20.88
2019-04-20T06:18:13.795Z,23.27
2019-04-20T06:20:50.239Z,21.68
2019-04-20T06:23:40.368Z,22.32
2019-04-20T06:26:19.421Z,23.52
2019-04-20T06:28:30.073Z,22.10
2019-04-20T06:31:10.738Z,18.62
2019-04-20T06:34:26.096Z,22.40
2019-04-20T06:36:53.533Z,22.45
2019-04-20T06:39:20.371Z,19.52
2019-04-20T06:44:30.438Z,22.10
2019-04-20T06:46:58.821Z,19.02
2019-04-20T06:49:30.238Z,22.80
2019-04-20T06:51:59.309Z,19.70
2019-04-20T06:54:38.019Z,21.52
2019-04-20T06:57:12.982Z,21.35
2019-04-20T06:59:43.124Z,18.05
2019-04-20T07:04:53.187Z,20.60
2019-04-20T07:07:30.888Z,20.55
2019-04-20T07:10:05.181Z,21.90
2019-04-20T07:12:17.023Z,20.77
2019-04-20T07:14:41.479Z,22.87
2019-04-20T07:19:56.101Z,19.62
2019-04-20T07:25:09.522Z,19.37
2019-04-20T07:27:45.118Z,22.87
2019-04-20T07:30:12.319Z,23.15
2019-04-20T07:32:48.384Z,21.62
2019-04-20T07:35:14.147Z,25.40
2019-04-20T07:38:10.056Z,21.07
2019-04-20T07:40:28.717Z,21.33
2019-04-20T07:42:52.652Z,20.57
2019-04-20T07:45:28.341Z,19.52
2019-04-20T07:47:58.123Z,22.05
2019-04-20T07:50:20.081Z,24.90
2019-04-20T07:52:43.868Z,22.58
2019-04-20T07:55:37.067Z,18.37
2019-04-20T07:57:50.058Z,20.15
2019-04-20T08:00:38.258Z,19.45
2019-04-20T08:03:26.454Z,20.45
2019-04-20T08:05:45.801Z,19.30
2019-04-20T08:08:22.936Z,21.00
2019-04-20T08:10:53.684Z,19.17
2019-04-20T08:13:32.071Z,18.65
2019-04-20T08:16:00.923Z,16.32
2019-04-20T08:18:51.334Z,15.32
2019-04-20T08:21:22.797Z,18.65
2019-04-20T08:23:52.143Z,20.97
2019-04-20T08:26:10.881Z,20.95
2019-04-20T08:28:55.232Z,19.65
2019-04-20T08:34:31.313Z,17.62
2019-04-20T08:36:49.228Z,19.10
2019-04-20T08:41:45.266Z,16.32
2019-04-20T08:44:34.003Z,15.78
2019-04-20T08:47:00.292Z,17.15
2019-04-20T08:49:26.475Z,18.32
2019-04-20T08:51:55.619Z,15.25
2019-04-20T08:54:16.542Z,16.55
2019-04-20T08:56:39.350Z,15.75
2019-04-20T08:59:02.368Z,14.35
2019-04-20T09:01:35.767Z,20.17
2019-04-20T09:04:12.744Z,17.73
2019-04-20T09:06:50.722Z,17.98
2019-04-20T09:09:37.546Z,16.02
2019-04-20T09:12:05.255Z,17.80
2019-04-20T09:14:12.179Z,21.60
2019-04-20T09:16:47.944Z,18.23
2019-04-20T09:19:14.952Z,17.02
2019-04-20T09:21:53.062Z,14.65
2019-04-20T09:24:43.534Z,15.93
2019-04-20T09:27:04.610Z,16.77
2019-04-20T09:29:35.843Z,19.37
2019-04-20T09:32:20.892Z,16.00
2019-04-20T09:34:54.365Z,15.72
2019-04-20T09:37:44.441Z,17.73
2019-04-20T09:40:28.966Z,17.65
2019-04-20T09:42:41.184Z,12.10
2019-04-20T09:45:23.236Z,13.70
2019-04-20T09:47:48.231Z,11.63
2019-04-20T09:50:36.902Z,12.58
2019-04-20T09:53:02.392Z,12.90
2019-04-20T09:55:27.960Z,12.05
2019-04-20T09:58:01.081Z,14.35
2019-04-20T10:00:37.182Z,12.80
2019-04-20T10:02:54.678Z,12.93
2019-04-20T10:05:25.344Z,15.38
2019-04-20T10:07:59.900Z,12.88
2019-04-20T10:10:33.370Z,11.88
2019-04-20T10:12:58.375Z,11.90
2019-04-20T10:15:29.618Z,12.53
2019-04-20T10:17:59.564Z,12.95
2019-04-20T10:20:32.796Z,13.20
2019-04-20T10:23:00.607Z,12.82
2019-04-20T10:25:30.867Z,11.48
2019-04-20T10:28:01.577Z,10.50
2019-04-20T10:30:32.549Z,14.35
2019-04-20T10:33:01.982Z,13.72
2019-04-20T10:35:33.834Z,13.28
2019-04-20T10:38:05.428Z,13.32
2019-04-20T10:40:46.403Z,11.28
2019-04-20T10:43:06.217Z,14.30
2019-04-20T10:45:36.931Z,11.88
2019-04-20T10:48:06.639Z,10.43
2019-04-20T10:50:36.780Z,11.08
2019-04-20T10:53:07.963Z,12.23
2019-04-20T10:55:37.772Z,11.85
2019-04-20T10:58:07.462Z,13.98
2019-04-20T11:00:44.033Z,10.82
2019-04-20T11:03:15.963Z,11.03
2019-04-20T11:05:46.800Z,13.30
2019-04-20T11:08:17.489Z,12.47
2019-04-20T11:10:57.912Z,10.70
2019-04-20T11:13:19.307Z,11.03
2019-04-20T11:15:50.566Z,10.20
2019-04-20T11:18:20.187Z,11.50
2019-04-20T11:20:51.080Z,12.00
2019-04-20T11:23:20.536Z,13.95
2019-04-20T11:25:50.507Z,12.68
2019-04-20T11:28:20.134Z,9.68
2019-04-20T11:30:50.618Z,13.70
2019-04-20T11:33:20.339Z,11.53
2019-04-20T11:35:49.997Z,12.45
2019-04-20T11:38:19.788Z,11.15
2019-04-20T11:41:02.507Z,12.33
2019-04-20T11:43:21.832Z,11.70
2019-04-20T11:45:51.812Z,14.18
2019-04-20T11:48:35.259Z,8.83
2019-04-20T11:51:09.517Z,11.15
2019-04-20T11:53:40.360Z,12.70
2019-04-20T11:56:14.582Z,13.88
2019-04-20T11:58:42.862Z,11.20
2019-04-20T12:01:38.085Z,15.80
2019-04-20T12:04:16.726Z,13.28
2019-04-20T12:06:32.768Z,10.53
2019-04-20T12:09:05.088Z,12.33
2019-04-20T12:11:50.985Z,11.80
2019-04-20T12:14:07.272Z,12.55
2019-04-20T12:16:37.505Z,10.48
2019-04-20T12:19:08.441Z,11.75
2019-04-20T12:21:39.078Z,13.20
2019-04-20T12:24:09.959Z,10.90
2019-04-20T12:26:40.602Z,11.38
2019-04-20T12:29:10.138Z,12.07
2019-04-20T12:31:39.815Z,11.40
2019-04-20T12:34:10.470Z,11.45
2019-04-20T12:36:40.044Z,11.03
2019-04-20T12:39:13.319Z,13.40
2019-04-20T12:41:50.543Z,16.15
2019-04-20T12:44:15.558Z,13.15
2019-04-20T12:46:45.854Z,11.00
2019-04-20T12:49:15.837Z,12.23
2019-04-20T12:51:52.623Z,14.98
2019-04-20T12:54:16.628Z,11.80
2019-04-20T12:56:46.575Z,11.80
2019-04-20T12:59:16.219Z,12.85
2019-04-20T13:01:45.566Z,13.90
2019-04-20T13:04:16.179Z,10.03
2019-04-20T13:06:46.962Z,10.78
2019-04-20T13:09:18.655Z,10.72
2019-04-20T13:12:03.562Z,12.05
2019-04-20T13:14:42.224Z,11.18
2019-04-20T13:17:12.400Z,12.60
2019-04-20T13:19:41.835Z,10.58
2019-04-20T13:22:12.819Z,12.40
2019-04-20T13:24:43.148Z,11.33
2019-04-20T13:27:14.397Z,11.35
2019-04-20T13:29:47.436Z,14.18
2019-04-20T13:32:16.345Z,8.90
2019-04-20T13:34:46.586Z,10.13
2019-04-20T13:37:16.216Z,13.28
2019-04-20T13:39:46.782Z,12.95
2019-04-20T13:42:22.679Z,9.95
2019-04-20T13:44:48.779Z,13.88
2019-04-20T13:47:19.116Z,12.63
2019-04-20T13:49:49.241Z,10.68
2019-04-20T13:52:18.813Z,11.97
2019-04-20T13:54:48.474Z,10.82
2019-04-20T13:57:23.954Z,14.60
2019-04-20T14:00:02.229Z,10.88
2019-04-20T14:02:51.007Z,10.68
2019-04-20T14:05:31.259Z,10.30
2019-04-20T14:08:05.237Z,12.33
2019-04-20T14:10:35.427Z,11.38
2019-04-20T14:13:12.171Z,11.03
2019-04-20T14:15:38.388Z,11.55
2019-04-20T14:18:09.322Z,11.05
2019-04-20T14:20:38.654Z,11.83
2019-04-20T14:23:09.370Z,9.80
2019-04-20T14:25:38.917Z,11.88
2019-04-20T14:28:09.078Z,9.73
2019-04-20T14:30:40.217Z,9.20
2019-04-20T14:33:10.611Z,9.18
2019-04-20T14:35:40.887Z,12.33
2019-04-20T14:38:10.494Z,11.93
2019-04-20T14:40:42.173Z,12.25
2019-04-20T14:43:12.912Z,10.60
2019-04-20T14:45:42.875Z,8.33
2019-04-20T14:48:14.507Z,10.58
2019-04-20T14:50:43.962Z,9.03
2019-04-20T14:53:13.760Z,9.55
2019-04-20T14:55:43.710Z,10.35
2019-04-20T14:58:33.447Z,12.43
2019-04-20T15:01:06.767Z,8.68
2019-04-20T15:03:39.182Z,11.78
2019-04-20T15:06:09.717Z,7.75
2019-04-20T15:08:40.673Z,9.58
2019-04-20T15:11:10.788Z,8.23
2019-04-20T15:13:40.625Z,9.73
2019-04-20T15:16:10.867Z,7.00
2019-04-20T15:18:58.120Z,8.40
2019-04-20T15:21:33.465Z,10.13
2019-04-20T15:24:03.722Z,10.75
2019-04-20T15:26:34.287Z,8.40
2019-04-20T15:29:04.414Z,9.85
2019-04-20T15:31:34.376Z,6.58
2019-04-20T15:34:06.915Z,8.05
2019-04-20T15:36:36.539Z,7.22
2019-04-20T15:39:09.381Z,7.10
2019-04-20T15:41:39.595Z,10.03
2019-04-20T15:44:09.293Z,7.08
2019-04-20T15:46:39.954Z,8.35
2019-04-20T15:49:10.283Z,6.72
2019-04-20T15:51:39.902Z,7.40
2019-04-20T15:54:11.957Z,5.80
2019-04-20T15:57:14.186Z,6.90
2019-04-20T15:59:38.155Z,7.05
2019-04-20T16:02:13.604Z,7.40
2019-04-20T16:05:04.082Z,8.23
2019-04-20T16:07:42.288Z,7.83
2019-04-20T16:10:09.417Z,6.47
2019-04-20T16:12:40.651Z,10.25
2019-04-20T16:15:11.357Z,9.05
2019-04-20T16:17:45.437Z,5.75
2019-04-20T16:20:16.935Z,7.55
2019-04-20T16:22:44.778Z,13.98
2019-04-20T16:25:23.586Z,7.50
2019-04-20T16:27:53.861Z,8.05
2019-04-20T16:30:23.397Z,7.50
2019-04-20T16:32:54.637Z,6.72
2019-04-20T16:35:24.606Z,8.23
2019-04-20T16:37:54.246Z,7.35
2019-04-20T16:40:27.325Z,8.80
2019-04-20T16:42:58.427Z,9.05
2019-04-20T16:45:29.953Z,6.62
2019-04-20T16:48:02.158Z,10.08
2019-04-20T16:50:33.050Z,9.33
2019-04-20T16:53:02.721Z,5.42
2019-04-20T16:55:34.858Z,7.12
2019-04-20T16:58:05.655Z,7.37
2019-04-20T17:00:37.622Z,9.65
2019-04-20T17:03:09.106Z,6.87
2019-04-20T17:05:39.089Z,7.30
2019-04-20T17:08:09.439Z,7.85
2019-04-20T17:10:39.516Z,6.55
2019-04-20T17:13:09.364Z,8.03
2019-04-20T17:15:39.361Z,9.60
2019-04-20T17:18:09.710Z,9.55
2019-04-20T17:20:41.015Z,8.15
2019-04-20T17:23:11.031Z,7.47
2019-04-20T17:25:41.815Z,6.87
2019-04-20T17:28:20.758Z,8.88
2019-04-20T17:31:03.656Z,9.13
2019-04-20T17:33:47.373Z,9.55
2019-04-20T17:36:12.446Z,7.15
2019-04-20T17:38:43.696Z,8.53
2019-04-20T17:41:29.230Z,7.83
2019-04-20T17:44:00.268Z,6.83
2019-04-20T17:46:24.681Z,6.95
2019-04-20T17:49:00.813Z,7.55
2019-04-20T17:51:34.420Z,7.33
2019-04-20T17:53:55.761Z,9.18
2019-04-20T17:56:20.340Z,8.75
2019-04-20T17:58:54.116Z,7.40
2019-04-20T18:01:34.805Z,7.67
2019-04-20T18:04:34.455Z,8.18
2019-04-20T18:06:50.208Z,7.45
2019-04-20T18:09:34.916Z,7.33
2019-04-20T18:11:45.265Z,6.62
2019-04-20T18:14:28.525Z,7.80
2019-04-20T18:17:16.999Z,6.35
2019-04-20T18:19:36.835Z,6.62
2019-04-20T18:22:11.920Z,8.75
2019-04-20T18:25:14.700Z,7.35
2019-04-20T18:27:48.575Z,7.60
2019-04-20T18:30:14.790Z,5.53
2019-04-20T18:32:29.858Z,9.25
2019-04-20T18:35:03.402Z,5.60
2019-04-20T18:37:36.331Z,6.20
2019-04-20T18:40:11.430Z,7.42
2019-04-20T18:42:43.836Z,7.00
2019-04-20T18:45:26.701Z,7.67
2019-04-20T18:48:02.716Z,8.08
2019-04-20T18:50:22.885Z,9.53
2019-04-20T18:52:47.666Z,8.83
2019-04-20T18:55:29.327Z,12.80
2019-04-20T18:57:51.033Z,11.80
2019-04-20T19:00:27.104Z,11.38
2019-04-20T19:02:56.049Z,23.83
2019-04-20T19:05:24.415Z,16.20
2019-04-20T19:08:00.930Z,15.95
2019-04-20T19:10:29.607Z,14.75
2019-04-20T19:13:01.629Z,14.23
2019-04-20T19:15:51.188Z,10.45
2019-04-20T19:18:23.883Z,10.15
2019-04-20T19:20:43.212Z,9.10
2019-04-20T19:23:12.709Z,9.65
2019-04-20T19:25:45.774Z,7.60
2019-04-20T19:28:21.623Z,15.60
2019-04-20T19:30:59.972Z,7.42
2019-04-20T19:33:30.907Z,8.83
2019-04-20T19:35:57.459Z,9.28
2019-04-20T19:38:24.489Z,9.53
2019-04-20T19:41:01.941Z,7.80
2019-04-20T19:43:31.059Z,8.48
2019-04-20T19:46:35.516Z,7.70
2019-04-20T19:48:39.643Z,7.83
2019-04-20T19:51:17.384Z,9.30
2019-04-20T19:53:48.176Z,7.65
2019-04-20T19:56:10.753Z,8.23
2019-04-20T19:58:49.688Z,6.37
2019-04-20T20:01:37.860Z,7.22
2019-04-20T20:04:11.764Z,8.40
2019-04-20T20:06:47.982Z,6.72
2019-04-20T20:09:17.815Z,7.42
2019-04-20T20:11:48.541Z,7.57
2019-04-20T20:14:31.950Z,8.00
2019-04-20T20:17:08.455Z,8.15
2019-04-20T20:19:38.498Z,7.15
2019-04-20T20:22:06.667Z,7.05
2019-04-20T20:24:25.407Z,7.85
2019-04-20T20:27:00.459Z,6.22
2019-04-20T20:29:34.265Z,8.05
2019-04-20T20:32:10.355Z,6.85
2019-04-20T20:34:36.364Z,6.85
2019-04-20T20:37:04.215Z,8.28
2019-04-20T20:39:33.045Z,6.15
2019-04-20T20:42:15.245Z,6.15
2019-04-20T20:44:44.072Z,8.45
2019-04-20T20:47:31.734Z,5.10
2019-04-20T20:50:08.739Z,10.23
2019-04-20T20:52:29.136Z,7.08
2019-04-20T20:55:00.779Z,6.28
2019-04-20T20:57:24.277Z,8.73
2019-04-20T21:00:00.455Z,7.60
2019-04-20T21:02:40.110Z,6.60
2019-04-20T21:04:55.900Z,7.12
2019-04-20T21:07:26.606Z,6.50
2019-04-20T21:09:58.687Z,8.85
2019-04-20T21:12:30.581Z,6.78
2019-04-20T21:15:08.830Z,7.17
2019-04-20T21:17:47.519Z,6.50
2019-04-20T21:20:20.438Z,7.05
2019-04-20T21:22:58.726Z,8.33
2019-04-20T21:25:21.158Z,7.22
2019-04-20T21:27:52.873Z,7.72
2019-04-20T21:30:30.008Z,8.23
2019-04-20T21:33:01.781Z,5.37
2019-04-20T21:38:05.465Z,7.30
2019-04-20T21:40:36.268Z,6.75
2019-04-20T21:43:06.812Z,8.53
2019-04-20T21:45:37.420Z,4.75
2019-04-20T21:48:29.823Z,6.50
2019-04-20T21:50:58.612Z,7.95
2019-04-20T21:53:19.609Z,5.33
2019-04-20T21:55:46.032Z,6.53
2019-04-20T21:58:19.400Z,8.70
2019-04-20T22:01:07.135Z,6.70
2019-04-20T22:03:24.681Z,6.15
2019-04-20T22:06:07.010Z,5.70
2019-04-20T22:08:39.477Z,7.80
2019-04-20T22:11:08.256Z,5.78
2019-04-20T22:13:41.645Z,10.23
2019-04-20T22:16:10.999Z,5.80
2019-04-20T22:18:54.406Z,6.35
2019-04-20T22:21:21.424Z,6.72
2019-04-20T22:24:01.829Z,8.05
2019-04-20T22:26:26.302Z,4.62
2019-04-20T22:28:50.109Z,6.42
2019-04-20T22:31:22.149Z,6.25
2019-04-20T22:33:54.423Z,6.45
2019-04-20T22:36:31.922Z,6.60
2019-04-20T22:39:09.527Z,6.25
2019-04-20T22:41:45.755Z,6.17
2019-04-20T22:44:20.283Z,7.05
2019-04-20T22:46:46.157Z,6.58
2019-04-20T22:49:36.320Z,5.55
2019-04-20T22:51:58.208Z,7.53
2019-04-20T22:54:36.415Z,6.83
2019-04-20T22:57:03.520Z,5.10
2019-04-20T22:59:40.479Z,5.75
2019-04-20T23:02:01.115Z,6.40
2019-04-20T23:04:31.018Z,6.05
2019-04-20T23:07:00.902Z,6.12
2019-04-20T23:09:34.211Z,6.60
2019-04-20T23:12:08.079Z,5.45
2019-04-20T23:14:34.316Z,5.55
2019-04-20T23:17:04.273Z,9.08
2019-04-20T23:19:43.694Z,5.78
2019-04-20T23:22:11.678Z,5.47
2019-04-20T23:24:39.421Z,5.65
2019-04-20T23:27:13.921Z,8.40
2019-04-20T23:29:44.886Z,5.42
2019-04-20T23:32:14.531Z,8.15
2019-04-20T23:34:44.770Z,5.80
2019-04-20T23:37:20.110Z,5.80
2019-04-20T23:39:49.196Z,5.75
2019-04-20T23:42:19.840Z,6.50
2019-04-20T23:45:02.198Z,6.45
2019-04-20T23:47:34.193Z,7.45
2019-04-20T23:50:19.190Z,8.25
2019-04-20T23:52:59.665Z,5.90
2019-04-20T23:55:15.744Z,5.50
2019-04-20T23:57:46.028Z,5.20
